createdAt,value
2022-09-12T00:00:51.067Z,53.00
2022-09-12T00:03:18.119Z,55.80
2022-09-12T00:05:47.041Z,53.20
2022-09-12T00:08:15.118Z,53.80
2022-09-12T00:10:44.077Z,54.00
2022-09-12T00:13:12.199Z,44.40
2022-09-12T00:15:44.310Z,53.80
2022-09-12T00:18:15.679Z,55.80
2022-09-12T00:20:44.997Z,54.80
2022-09-12T00:23:12.597Z,52.20
2022-09-12T00:25:47.012Z,52.00
2022-09-12T00:28:16.852Z,51.20
2022-09-12T00:30:45.562Z,54.40
2022-09-12T00:33:14.077Z,51.20
2022-09-12T00:35:50.202Z,50.20
2022-09-12T00:38:17.992Z,48.00
2022-09-12T00:40:45.117Z,51.80
2022-09-12T00:43:33.838Z,54.40
2022-09-12T00:46:27.483Z,48.00
2022-09-12T00:49:04.045Z,54.00
2022-09-12T00:51:34.604Z,51.00
2022-09-12T00:54:06.643Z,50.60
2022-09-12T00:56:34.883Z,57.00
2022-09-12T00:59:25.518Z,50.40
2022-09-12T01:01:53.217Z,49.00
2022-09-12T01:04:23.133Z,48.20
2022-09-12T01:06:51.333Z,48.20
2022-09-12T01:09:22.110Z,51.00
2022-09-12T01:11:50.843Z,53.80
2022-09-12T01:14:19.610Z,51.00
2022-09-12T01:16:48.962Z,46.00
2022-09-12T01:19:26.238Z,49.40
2022-09-12T01:22:24.237Z,51.40
2022-09-12T01:25:16.037Z,42.00
2022-09-12T01:27:57.231Z,53.60
2022-09-12T01:30:43.037Z,53.00
2022-09-12T01:33:34.357Z,48.60
2022-09-12T01:36:10.603Z,51.80
2022-09-12T01:38:44.978Z,55.60
2022-09-12T01:41:26.077Z,48.20
2022-09-12T01:44:20.357Z,48.20
2022-09-12T01:46:56.036Z,49.40
2022-09-12T01:49:34.402Z,50.00
2022-09-12T01:52:13.078Z,52.60
2022-09-12T01:54:54.051Z,46.00
2022-09-12T01:57:48.923Z,50.20
2022-09-12T02:00:16.765Z,46.80
2022-09-12T02:02:50.852Z,48.00
2022-09-12T02:05:28.398Z,48.40
2022-09-12T02:08:17.318Z,58.80
2022-09-12T02:10:50.932Z,61.80
2022-09-12T02:13:24.092Z,51.80
2022-09-12T02:15:56.283Z,52.20
2022-09-12T02:18:28.038Z,50.60
2022-09-12T02:20:57.286Z,53.60
2022-09-12T02:23:29.751Z,51.60
2022-09-12T02:26:02.255Z,71.40
2022-09-12T02:28:34.946Z,47.00
2022-09-12T02:31:12.529Z,49.20
2022-09-12T02:33:59.112Z,53.80
2022-09-12T02:37:04.438Z,46.00
2022-09-12T02:39:32.037Z,48.20
2022-09-12T02:42:01.292Z,53.80
2022-09-12T02:44:31.039Z,48.00
2022-09-12T02:47:06.249Z,56.20
2022-09-12T02:49:33.803Z,47.00
2022-09-12T02:52:02.839Z,47.60
2022-09-12T02:54:31.513Z,48.20
2022-09-12T02:56:58.510Z,48.20
2022-09-12T02:59:26.646Z,51.80
2022-09-12T03:02:14.718Z,46.00
2022-09-12T03:05:00.173Z,51.00
2022-09-12T03:07:44.878Z,50.00
2022-09-12T03:10:36.397Z,51.20
2022-09-12T03:13:18.526Z,52.20
2022-09-12T03:16:03.572Z,50.40
2022-09-12T03:18:46.550Z,49.60
2022-09-12T03:21:25.998Z,48.80
2022-09-12T03:24:33.255Z,51.40
2022-09-12T03:27:13.479Z,65.80
2022-09-12T03:29:43.038Z,45.00
2022-09-12T03:32:09.991Z,49.00
2022-09-12T03:34:37.018Z,46.00
2022-09-12T03:37:04.231Z,54.60
2022-09-12T03:39:31.602Z,54.80
2022-09-12T03:41:58.883Z,52.80
2022-09-12T03:44:26.157Z,60.00
2022-09-12T03:46:53.168Z,48.60
2022-09-12T03:49:20.111Z,50.20
2022-09-12T03:51:47.442Z,46.80
2022-09-12T03:54:14.492Z,54.80
2022-09-12T03:56:41.837Z,46.60
2022-09-12T03:59:08.918Z,49.40
2022-09-12T04:01:35.842Z,52.20
2022-09-12T04:04:03.111Z,50.80
2022-09-12T04:06:36.565Z,47.00
2022-09-12T04:09:03.572Z,52.60
2022-09-12T04:11:32.358Z,54.80
2022-09-12T04:13:59.372Z,55.60
2022-09-12T04:16:26.457Z,55.20
2022-09-12T04:18:54.478Z,49.40
2022-09-12T04:21:24.032Z,49.00
2022-09-12T04:23:51.122Z,51.40
2022-09-12T04:26:19.364Z,50.60
2022-09-12T04:28:47.141Z,62.00
2022-09-12T04:31:22.878Z,51.00
2022-09-12T04:33:57.292Z,52.80
2022-09-12T04:36:25.206Z,49.00
2022-09-12T04:38:52.605Z,48.00
2022-09-12T04:41:24.132Z,49.00
2022-09-12T04:44:03.679Z,52.80
2022-09-12T04:46:41.963Z,53.60
2022-09-12T04:49:09.111Z,45.60
2022-09-12T04:51:37.998Z,46.00
2022-09-12T04:54:12.911Z,51.80
2022-09-12T04:56:45.043Z,51.60
2022-09-12T04:59:13.878Z,49.20
2022-09-12T05:01:43.567Z,52.40
2022-09-12T05:04:13.244Z,48.00
2022-09-12T05:06:41.712Z,48.80
2022-09-12T05:09:11.854Z,46.00
2022-09-12T05:12:03.279Z,51.00
2022-09-12T05:14:28.854Z,48.80
2022-09-12T05:16:59.997Z,50.20
2022-09-12T05:19:28.564Z,46.80
2022-09-12T05:21:55.608Z,46.00
2022-09-12T05:24:22.558Z,47.20
2022-09-12T05:26:49.550Z,51.00
2022-09-12T05:29:16.958Z,47.80
2022-09-12T05:31:43.950Z,51.80
2022-09-12T05:34:11.488Z,48.60
2022-09-12T05:36:39.568Z,50.20
2022-09-12T05:39:06.554Z,38.60
2022-09-12T05:41:34.529Z,50.60
2022-09-12T05:44:05.151Z,47.20
2022-09-12T05:46:40.293Z,48.00
2022-09-12T05:49:10.234Z,43.00
2022-09-12T05:51:42.739Z,56.40
2022-09-12T05:54:14.363Z,51.00
2022-09-12T05:56:44.192Z,46.60
2022-09-12T05:59:20.435Z,50.80
2022-09-12T06:01:48.840Z,45.40
2022-09-12T06:04:17.842Z,46.40
2022-09-12T06:06:45.968Z,46.80
2022-09-12T06:09:15.239Z,48.60
2022-09-12T06:11:42.601Z,52.20
2022-09-12T06:14:11.926Z,56.40
2022-09-12T06:16:39.701Z,52.60
2022-09-12T06:19:13.198Z,59.60
2022-09-12T06:21:40.278Z,53.60
2022-09-12T06:24:08.609Z,56.60
2022-09-12T06:26:36.134Z,55.40
2022-09-12T06:29:06.243Z,53.40
2022-09-12T06:31:38.443Z,55.00
2022-09-12T06:34:09.350Z,56.40
2022-09-12T06:36:42.397Z,56.40
2022-09-12T06:39:21.364Z,54.40
2022-09-12T06:41:50.362Z,51.80
2022-09-12T06:44:22.643Z,61.80
2022-09-12T06:46:50.880Z,60.80
2022-09-12T06:49:18.038Z,56.60
2022-09-12T06:51:45.478Z,54.00
2022-09-12T06:54:14.766Z,52.40
2022-09-12T06:56:45.128Z,59.60
2022-09-12T06:59:12.457Z,64.20
2022-09-12T07:01:40.454Z,63.00
2022-09-12T07:04:07.731Z,65.00
2022-09-12T07:06:41.279Z,74.60
2022-09-12T07:09:12.562Z,54.60
2022-09-12T07:11:43.391Z,56.60
2022-09-12T07:14:13.158Z,61.80
2022-09-12T07:16:40.558Z,63.20
2022-09-12T07:19:12.404Z,67.00
2022-09-12T07:21:42.757Z,67.40
2022-09-12T07:24:13.359Z,66.80
2022-09-12T07:26:42.537Z,67.40
2022-09-12T07:32:06.100Z,63.60
2022-09-12T07:34:33.759Z,65.40
2022-09-12T07:37:00.718Z,64.00
2022-09-12T07:39:27.842Z,67.00
2022-09-12T07:41:55.230Z,61.80
2022-09-12T07:44:23.092Z,69.40
2022-09-12T07:46:51.402Z,65.00
2022-09-12T07:49:18.812Z,65.00
2022-09-12T07:51:46.157Z,67.40
2022-09-12T07:54:13.243Z,66.20
2022-09-12T07:56:41.471Z,70.00
2022-09-12T07:59:09.005Z,65.20
2022-09-12T08:01:41.834Z,70.00
2022-09-12T08:04:10.084Z,67.80
2022-09-12T08:06:37.242Z,69.00
2022-09-12T08:09:11.522Z,69.80
2022-09-12T08:11:39.763Z,60.80
2022-09-12T08:14:06.892Z,65.40
2022-09-12T08:16:35.933Z,66.40
2022-09-12T08:19:04.528Z,68.80
2022-09-12T08:21:34.293Z,67.40
2022-09-12T08:24:06.244Z,67.00
2022-09-12T08:26:34.482Z,68.00
2022-09-12T08:29:02.038Z,62.20
2022-09-12T08:31:29.550Z,66.60
2022-09-12T08:34:00.518Z,65.20
2022-09-12T08:36:28.612Z,68.20
2022-09-12T08:39:07.877Z,66.40
2022-09-12T08:41:44.612Z,71.00
2022-09-12T08:44:44.590Z,65.20
2022-09-12T08:47:27.092Z,69.80
2022-09-12T08:49:59.963Z,69.80
2022-09-12T08:52:37.810Z,69.80
2022-09-12T08:55:07.419Z,61.60
2022-09-12T08:57:34.738Z,69.20
2022-09-12T09:00:06.391Z,66.00
2022-09-12T09:02:58.660Z,71.60
2022-09-12T09:06:22.903Z,67.00
2022-09-12T09:09:34.367Z,69.80
2022-09-12T09:12:18.412Z,67.00
2022-09-12T09:15:01.399Z,66.60
2022-09-12T09:17:42.042Z,71.00
2022-09-12T09:20:38.212Z,63.80
2022-09-12T09:23:28.806Z,72.20
2022-09-12T09:26:04.411Z,67.00
2022-09-12T09:28:45.931Z,69.00
2022-09-12T09:31:18.319Z,64.40
2022-09-12T09:33:51.479Z,70.00
2022-09-12T09:36:22.693Z,66.60
2022-09-12T09:38:51.207Z,67.00
2022-09-12T09:41:31.061Z,65.60
2022-09-12T09:43:59.420Z,69.20
2022-09-12T09:46:30.132Z,72.40
2022-09-12T09:48:59.727Z,69.40
2022-09-12T09:51:35.651Z,70.00
2022-09-12T09:54:29.326Z,70.80
2022-09-12T09:56:56.751Z,70.00
2022-09-12T09:59:30.639Z,67.40
2022-09-12T10:02:24.437Z,70.00
2022-09-12T10:05:00.229Z,70.00
2022-09-12T10:07:28.069Z,71.40
2022-09-12T10:10:17.448Z,71.20
2022-09-12T10:12:45.150Z,67.00
2022-09-12T10:15:27.385Z,72.60
2022-09-12T10:17:59.186Z,69.60
2022-09-12T10:20:40.275Z,69.40
2022-09-12T10:23:19.608Z,70.60
2022-09-12T10:25:55.170Z,73.00
2022-09-12T10:28:33.647Z,70.00
2022-09-12T10:31:03.039Z,70.00
2022-09-12T10:33:32.025Z,73.40
2022-09-12T10:36:00.885Z,70.00
2022-09-12T10:38:32.942Z,67.00
2022-09-12T10:41:04.316Z,70.80
2022-09-12T10:43:37.829Z,70.40
2022-09-12T10:46:20.343Z,72.20
2022-09-12T10:48:49.797Z,70.40
2022-09-12T10:51:26.888Z,72.20
2022-09-12T10:54:00.549Z,71.20
2022-09-12T10:56:44.672Z,73.00
2022-09-12T10:59:39.202Z,69.00
2022-09-12T11:02:25.098Z,68.20
2022-09-12T11:05:02.141Z,70.00
2022-09-12T11:08:10.958Z,70.00
2022-09-12T11:11:07.010Z,73.80
2022-09-12T11:13:52.807Z,70.00
2022-09-12T11:16:46.154Z,70.00
2022-09-12T11:19:13.430Z,70.00
2022-09-12T11:21:59.713Z,73.80
2022-09-12T11:24:48.369Z,74.20
2022-09-12T11:27:18.796Z,73.00
2022-09-12T11:29:53.391Z,73.20
2022-09-12T11:32:39.068Z,73.00
2022-09-12T11:35:25.283Z,72.80
2022-09-12T11:38:31.742Z,70.80
2022-09-12T18:01:31.823Z,67.00
2022-09-12T18:07:14.628Z,67.00
2022-09-12T18:09:44.675Z,64.00
2022-09-12T18:12:15.043Z,67.00
2022-09-12T18:14:45.364Z,66.20
2022-09-12T18:17:18.635Z,67.00
2022-09-12T18:19:53.514Z,68.20
2022-09-12T18:22:29.040Z,66.60
2022-09-12T18:25:04.808Z,66.60
2022-09-12T20:12:17.583Z,56.20
2022-09-12T21:20:42.811Z,62.20
2022-09-12T23:27:32.364Z,54.00
2022-09-12T23:30:07.186Z,58.00
2022-09-12T23:32:39.523Z,63.60
